• Join FlightAware (Why Join?)
  • Login
  • US Flag 
03:31AM EDT


 

Airport Tracker/Info


-or-


 

Live Flight TrackerFlight Track Log ✈ AUB1736 ✈ 06-Oct-2013 ✈ EDDM / MUC - LATI / TIA

Flight Track Log - Related Links

Times and Time Zones

All times are in EDT time to prevent confusion due to time zone crossing. See the AUB1736 flight status page for this flight to view local times or setup timezone preferences in your user account.

Time Position Orientation Groundspeed Altitude Reporting Facility
EDT Latitude Longitude Course Direction KTS MPH feet Rate Location/Type
03:46AM 48.0079 12.2485 138° Southeast  Level Estimated
03:47AM 47.9211 12.3631 138° Southeast  Level Estimated
03:48AM 47.8342 12.4774 139° Southeast  Level Estimated
03:49AM 47.7472 12.5913 139° Southeast  Level Estimated
03:50AM 47.6601 12.7047 139° Southeast  Level Estimated
03:51AM 47.5729 12.8179 139° Southeast  Level Estimated
03:52AM 47.4855 12.9306 139° Southeast  Level Estimated
03:53AM 47.3981 13.0429 139° Southeast  Level Estimated
03:54AM 47.3105 13.1549 139° Southeast  Level Estimated
03:55AM 47.2229 13.2665 139° Southeast  Level Estimated
03:56AM 47.1351 13.3778 139° Southeast  Level Estimated
03:57AM 47.0472 13.4887 139° Southeast  Level Estimated
03:58AM 46.9593 13.5992 139° Southeast  Level Estimated
03:59AM 46.8712 13.7093 139° Southeast  Level Estimated
04:00AM 46.7830 13.8191 140° Southeast  Level Estimated
04:01AM 46.6947 13.9285 140° Southeast  Level Estimated
04:02AM 46.6063 14.0376 140° Southeast  Level Estimated
04:03AM 46.5177 14.1463 140° Southeast  Level Estimated
04:04AM 46.4291 14.2547 140° Southeast  Level Estimated
04:05AM 46.3404 14.3627 140° Southeast  Level Estimated
04:06AM 46.2516 14.4704 140° Southeast  Level Estimated
04:07AM 46.1627 14.5777 140° Southeast  Level Estimated
04:08AM 46.0737 14.6846 140° Southeast  Level Estimated
04:09AM 45.9846 14.7913 140° Southeast  Level Estimated
04:10AM 45.8954 14.8975 140° Southeast  Level Estimated
04:11AM 45.8061 15.0035 140° Southeast  Level Estimated
04:12AM 45.7167 15.1091 140° Southeast  Level Estimated
04:13AM 45.6272 15.2143 141° Southeast  Level Estimated
04:14AM 45.5376 15.3193 141° Southeast  Level Estimated
04:15AM 45.4478 15.4238 141° Southeast  Level Estimated
04:16AM 45.3581 15.5281 141° Southeast  Level Estimated
04:17AM 45.2682 15.6320 141° Southeast  Level Estimated
04:18AM 45.1782 15.7356 141° Southeast  Level Estimated
04:19AM 45.0881 15.8389 141° Southeast  Level Estimated
04:20AM 44.9980 15.9418 141° Southeast  Level Estimated
04:21AM 44.9077 16.0445 141° Southeast  Level Estimated
04:22AM 44.8173 16.1468 141° Southeast  Level Estimated
04:23AM 44.7269 16.2488 141° Southeast  Level Estimated
04:24AM 44.6364 16.3504 141° Southeast  Level Estimated
04:25AM 44.5457 16.4517 141° Southeast  Level Estimated
04:26AM 44.4550 16.5528 142° Southeast  Level Estimated
04:27AM 44.3642 16.6535 142° Southeast  Level Estimated
04:28AM 44.2733 16.7539 142° Southeast  Level Estimated
04:29AM 44.1824 16.8540 142° Southeast  Level Estimated
04:30AM 44.0913 16.9538 142° Southeast  Level Estimated
04:31AM 44.0002 17.0532 142° Southeast  Level Estimated
04:32AM 43.9089 17.1524 142° Southeast  Level Estimated
04:33AM 43.8176 17.2513 142° Southeast  Level Estimated
04:34AM 43.7262 17.3499 142° Southeast  Level Estimated
04:35AM 43.6347 17.4481 142° Southeast  Level Estimated
04:36AM 43.5431 17.5461 142° Southeast  Level Estimated
04:37AM 43.4515 17.6438 142° Southeast  Level Estimated
04:38AM 43.3597 17.7411 142° Southeast  Level Estimated
04:39AM 43.2679 17.8382 142° Southeast  Level Estimated
04:40AM 43.1760 17.9350 142° Southeast  Level Estimated
04:41AM 43.0840 18.0315 143° Southeast  Level Estimated
04:42AM 42.9919 18.1277 143° Southeast  Level Estimated
04:43AM 42.8998 18.2236 143° Southeast  Level Estimated
04:44AM 42.8076 18.3193 143° Southeast  Level Estimated
04:45AM 42.7152 18.4146 143° Southeast  Level Estimated
04:46AM 42.6229 18.5097 143° Southeast  Level Estimated
04:47AM 42.5304 18.6045 143° Southeast  Level Estimated
04:48AM 42.4379 18.6990 143° Southeast  Level Estimated
04:49AM 42.3452 18.7932 143° Southeast  Level Estimated
04:50AM 42.2525 18.8871 143° Southeast  Level Estimated
04:51AM 42.1598 18.9808 143° Southeast  Level Estimated
04:52AM 42.0669 19.0742 143° Southeast  Level Estimated
04:53AM 41.9740 19.1673 143° Southeast  Level Estimated
04:54AM 41.8810 19.2602 143° Southeast  Level Estimated
04:55AM 41.7879 19.3528 143° Southeast  Level Estimated
04:56AM 41.6948 19.4451 143° Southeast  Level Estimated
04:57AM 41.6016 19.5371 144° Southeast  Level Estimated
04:58AM 41.5083 19.6289 144° Southeast  Level Estimated
04:59AM 41.4149 19.7204 144° Southeast  Level Estimated
05:00AM 41.4147 19.7206 143° Southeast  Level Estimated
05:01AM 41.4147 19.7206 21° North  Level Estimated
05:02AM 41.4147 19.7206 21° North  Level Estimated
05:03AM 41.4147 19.7206 21° North  Level Estimated
05:04AM 41.4147 19.7206 21° North  Level Estimated
05:05AM 41.4147 19.7206 21° North  Level Estimated
05:06AM 41.4147 19.7206 21° North  Level Estimated
05:07AM 41.4147 19.7206 21° North  Level Estimated
05:08AM 41.4147 19.7206 21° North  Level Estimated
05:09AM 41.4147 19.7206 21° North  Level Estimated
05:10AM 41.4147 19.7206 21° North  Level Estimated
05:11AM 41.4147 19.7206 21° North  Level Estimated
05:12AM 41.4147 19.7206 21° North  Level Estimated
05:13AM 41.4147 19.7206 21° North  Level Estimated